Flint, MI (48501)

9:15 AM EST on December 25, 2014 (GMT -0500)
Swartz Creek | Change Station
CLOSE
Current Station
Personal Weather Station
Location: Swartz Creek, MI
Elevation: 807 ft
Nearby Weather Stations

Elev 807 ft 42.96 °N, 83.88 °W | Updated 9 minutes ago

Overcast
Overcast
35.7 °F
Feels Like 29 °F
N
8.0
Wind Variable Wind from West
Gusts 15.0 mph

Today
High -- | Low -- °F
--% Chance of Precip.
Yesterday
High -- | Low -- °F
Precip. -- in
8:04 AM 5:05 PM
Waxing Crescent, 16% visible
Pressure 29.83 in
Visibility 10.0 miles
Clouds Overcast 2300 ft
Windchill 29 °F
Dew Point 33 °F
Humidity 88%
Rainfall 0.15 in
Snow Depth Not available.
UV 0 out of 12
Pollen .10 out of 12
Air Quality Not available.
Flu Activity Not available.
METAR KFNT 251353Z 27013G17KT 10SM OVC023 03/00 A2980 RMK AO2 SLP099 T00330000

More Conditions Fewer Conditions

Pressure 29.83 in
Visibility 10.0 miles
Clouds Overcast 2300 ft
Windchill 29 °F
Dew Point 33 °F
Humidity 88%
Rainfall 0.15 in
Snow Depth Not available.
UV 0 out of 12
Pollen .10 out of 12
Air Quality Not available.
Flu Activity Not available.
METAR KFNT 251353Z 27013G17KT 10SM OVC023 03/00 A2980 RMK AO2 SLP099 T00330000

More Conditions Fewer Conditions

10-Day Weather Forecast

Almanac

Astronomy

Dec. 25, 2014 Rise Set
Actual Time
Civil Twilight
Nautical Twilight
Astronomical Twilight
Moon
Length of Visible Light
Length of Day
Tomorrow will be .
, % of the Moon is Illuminated

Today's Extremes

State Highs State Lows

Community

WunderPhotos

Upload Photos

1,780,277 photos uploaded!

WunderBlogs® & News

Nearby

Air Quality

  Air Quality AQ Index Pollutant
Not available.

Snow Depth

Station Depth Elevation

Earthquake Activity

City Distance Mag. Time & Date
Minimum magnitude displayed is 2.5.

Coastal Water Temperatures

Place Temperature

Nearby Weather Stations